Olympic Valley, CA (96146)

7:10 AM PDT on September 01, 2015 (GMT -0700)
Squaw Valley USA | | Change Station
CLOSE
Current Station
Personal Weather Station
Location: Olympic Valley, CA
Elevation: 6529 ft
Nearby Weather Stations

Elev 6529 ft 39.20 °N, 120.23 °W | Updated 6 minutes ago

Clear
Clear
45.8 °F
Feels Like 46 °F
N
0.0
Wind Variable Wind from NW
Gusts 0.0 mph

Today
High -- | Low -- °F
--% Chance of Precip.
Yesterday
High -- | Low -- °F
Precip. -- in
6:29 AM 7:31 PM
Waning Gibbous, 88% visible
Pressure 30.14 in
Visibility 10.0 miles
Clouds Clear
Windchill 46 °F
Dew Point 32 °F
Humidity 58%
Rainfall 0.00 in
Snow Depth Not available.
UV 0 out of 12
Pollen 8.10 out of 12
Air Quality Not available.
Flu Activity Not available.
METAR KTRK 011345Z 00000KT 10SM SKC 02/M03 A3014 RMK NOSPECI FIRST 24HR MAX 0294 MIN 1011
Pressure 30.14 in
Visibility 10.0 miles
Clouds Clear
Windchill 46 °F
Dew Point 32 °F
Humidity 58%
Rainfall 0.00 in
Snow Depth Not available.
UV 0 out of 12
Pollen 8.10 out of 12
Air Quality Not available.
Flu Activity Not available.
METAR KTRK 011345Z 00000KT 10SM SKC 02/M03 A3014 RMK NOSPECI FIRST 24HR MAX 0294 MIN 1011

10-Day Weather Forecast

×

Almanac

Astronomy

Sep. 01, 2015 Rise Set
Actual Time
Civil Twilight
Nautical Twilight
Astronomical Twilight
Moon
Length of Visible Light
Length of Day
Tomorrow will be .
, % of the Moon is Illuminated

Today's Extremes

State Highs State Lows

Community

WunderPhotos

Upload Photos

1,851,512 photos uploaded!

WunderBlogs® & News

Nearby

Air Quality

  Air Quality AQ Index Pollutant
Not available.

Snow Depth

Station Depth Elevation

Earthquake Activity

City Distance Mag. Time & Date
Minimum magnitude displayed is 2.5.

Coastal Water Temperatures

Place Temperature

Stations

Nearby Weather Stations

Station Location Temp. Windchill Dew Point Humidity Wind Precip. Elev Updated Type